Rome, Italy
Current Conditions -  °F | °C
As of 5:45 PM on Saturday 20 Dec 2014 (Local Time) from LIRA Reporting Station
Scattered Clouds Scattered Clouds  
Wind Chill: 54°   Ceiling: Unl
Heat Index: 54°   Visibility: 6mi
Dew Point: 48°   Wind: 0mph
Humidity: 82%   Direction: NA
Pressure: 30.15"   Gusts: NA
Location:  41.9°N, 12.48°E
Report Text: LIRA 201645Z 00000KT 9999 FEW020 SCT060 12/09 Q1021
Loading
Personal Weather Stations






























Interactive Weather Map New forecast layout! Learn more

10-Day Weather Forecast

Advertisements
Track Severe Weather on mobile